Terminal Aerodrome Forecast
Issued by NWS Albuquerque, NM

Home | Current Version | Previous Version | Text Only | Print | Product List | Glossary On
Versions: 1 2 3 4 5 6 7 8 9 10 11 12 13 14
000
FTUS45 KABQ 061100
TAFABQ
TAF
KABQ 061133Z 0612/0712 19007KT P6SM FEW040 BKN080
      TEMPO 0612/0614 BKN040
     FM061500 23008KT P6SM FEW040 SCT100
     FM061900 24013G22KT P6SM VCSH SCT070 BKN120
      TEMPO 0620/0624 VRB18G28KT BKN060
     FM070200 26007KT P6SM FEW080 SCT120
     FM070800 30006KT P6SM FEW120=

USA.gov is the U.S. government's official web portal to all federal, state and local government web resources and services.